createdAt,value
2023-01-13T00:02:06.149Z,8.6
2023-01-13T00:06:12.241Z,8.5
2023-01-13T00:14:21.834Z,8.3
2023-01-13T00:16:26.259Z,8.3
2023-01-13T00:18:27.997Z,8.3
2023-01-13T00:20:29.727Z,8.4
2023-01-13T00:22:34.161Z,8.3
2023-01-13T00:24:35.903Z,8.3
2023-01-13T00:26:37.589Z,8.2
2023-01-13T00:28:42.048Z,8.1
2023-01-13T00:32:45.543Z,8.1
2023-01-13T00:34:49.876Z,8
2023-01-13T00:38:53.413Z,7.9
2023-01-13T00:40:57.791Z,7.8
2023-01-13T00:42:59.544Z,7.8
2023-01-13T00:45:01.371Z,7.7
2023-01-13T00:47:05.760Z,7.6
2023-01-13T00:49:07.478Z,7.6
2023-01-13T00:51:09.208Z,7.6
2023-01-13T00:53:13.640Z,7.5
2023-01-13T00:55:15.326Z,7.4
2023-01-13T00:57:17.061Z,7.5
2023-01-13T00:59:21.477Z,7.4
2023-01-13T01:03:24.937Z,7.3
2023-01-13T01:18:51.183Z,7.4
2023-01-13T01:20:55.630Z,7.4
2023-01-13T01:22:57.378Z,7.4
2023-01-13T01:24:59.113Z,7.5
2023-01-13T01:27:03.462Z,7.5
2023-01-13T01:29:05.295Z,7.6
2023-01-13T01:31:07.172Z,7.5
2023-01-13T01:33:11.635Z,7.5
2023-01-13T01:37:15.252Z,7.6
2023-01-13T01:39:19.708Z,7.6
2023-01-13T01:41:21.498Z,7.7
2023-01-13T01:45:27.857Z,7.7
2023-01-13T01:47:29.649Z,7.5
2023-01-13T01:49:31.485Z,7.5
2023-01-13T01:51:35.921Z,7.6
2023-01-13T01:59:45.775Z,7.8
2023-01-13T02:01:47.649Z,7.9
2023-01-13T02:03:52.057Z,7.8
2023-01-13T02:05:53.768Z,7.9
2023-01-13T02:07:55.483Z,8.1
2023-01-13T02:09:59.876Z,8.1
2023-01-13T02:12:01.744Z,8.2
2023-01-13T02:14:03.467Z,8.2
2023-01-13T02:16:08.018Z,8.2
2023-01-13T02:18:09.780Z,8.2
2023-01-13T02:20:11.594Z,8.1
2023-01-13T02:28:24.199Z,8.1
2023-01-13T02:30:26.013Z,8.2
2023-01-13T02:32:27.807Z,8.2
2023-01-13T02:34:32.256Z,8.2
2023-01-13T02:36:34.132Z,8.2
2023-01-13T02:38:35.883Z,8.1
2023-01-13T02:47:35.865Z,8.2
2023-01-13T02:49:37.672Z,8.2
2023-01-13T02:51:39.413Z,8.3
2023-01-13T02:53:43.931Z,8.2
2023-01-13T02:55:45.739Z,8
2023-01-13T02:57:47.574Z,8.1
2023-01-13T02:59:52.030Z,8.1
2023-01-13T03:01:53.975Z,8.1
2023-01-13T03:03:55.621Z,8.2
2023-01-13T03:06:00.144Z,8.2
2023-01-13T03:08:01.920Z,8.2
2023-01-13T03:10:03.702Z,8.3
2023-01-13T03:12:08.204Z,8.3
2023-01-13T03:16:11.885Z,8.4
2023-01-13T03:18:16.289Z,8.2
2023-01-13T03:20:18.086Z,8.2
2023-01-13T03:24:24.267Z,8.2
2023-01-13T03:26:26.495Z,8.1
2023-01-13T03:28:28.219Z,8
2023-01-13T03:30:32.666Z,8.1
2023-01-13T03:32:34.307Z,8.3
2023-01-13T03:36:40.483Z,8.3
2023-01-13T03:38:42.274Z,8.3
2023-01-13T03:40:44.095Z,8.2
2023-01-13T03:42:48.557Z,8.3
2023-01-13T03:44:50.370Z,8.4
2023-01-13T03:46:52.162Z,8.4
2023-01-13T03:48:56.657Z,8.5
2023-01-13T03:50:58.452Z,8.5
2023-01-13T03:53:00.246Z,8.4
2023-01-13T03:55:04.752Z,8.5
2023-01-13T03:59:08.369Z,8.2
2023-01-13T04:01:12.950Z,8.4
2023-01-13T04:03:14.637Z,8.3
2023-01-13T04:05:16.459Z,8.5
2023-01-13T04:07:20.969Z,8.5
2023-01-13T04:09:22.686Z,8.4
2023-01-13T04:11:24.366Z,8.4
2023-01-13T04:13:28.866Z,8.5
2023-01-13T04:15:30.743Z,8.4
2023-01-13T04:17:32.513Z,8.5
2023-01-13T04:19:37.010Z,8.3
2023-01-13T04:23:40.604Z,8.3
2023-01-13T04:30:52.315Z,8.1
2023-01-13T04:32:54.043Z,8.2
2023-01-13T04:38:02.124Z,8.2
2023-01-13T04:40:03.778Z,8.1
2023-01-13T04:42:05.476Z,8.1
2023-01-13T04:44:09.866Z,8.2
2023-01-13T04:48:13.278Z,8.2
2023-01-13T04:57:13.106Z,8.1
2023-01-13T04:59:14.793Z,8
2023-01-13T05:01:16.592Z,7.9
2023-01-13T05:08:25.767Z,8
2023-01-13T05:10:27.601Z,8
2023-01-13T05:12:32.125Z,7.8
2023-01-13T05:14:33.869Z,7.9
2023-01-13T05:16:35.661Z,7.9
2023-01-13T05:18:40.149Z,7.9
2023-01-13T05:20:41.928Z,7.8
2023-01-13T05:22:43.750Z,7.7
2023-01-13T05:24:48.230Z,7.9
2023-01-13T05:28:51.817Z,7.8
2023-01-13T05:30:56.338Z,7.8
2023-01-13T05:32:57.993Z,7.9
2023-01-13T05:34:59.831Z,8
2023-01-13T05:37:04.269Z,7.9
2023-01-13T05:39:06.089Z,7.8
2023-01-13T05:41:07.870Z,7.7
2023-01-13T05:43:12.350Z,7.8
2023-01-13T05:47:15.965Z,7.5
2023-01-13T05:51:22.226Z,7.7
2023-01-13T05:53:23.921Z,7.7
2023-01-13T05:57:30.228Z,7.7
2023-01-13T06:11:14.085Z,7.8
2023-01-13T06:13:15.875Z,8
2023-01-13T06:19:23.959Z,7.9
2023-01-13T06:21:25.747Z,7.9
2023-01-13T06:36:30.873Z,7.8
2023-01-13T06:38:32.623Z,7.9
2023-01-13T06:40:34.414Z,8.1
2023-01-13T06:42:38.915Z,8
2023-01-13T06:55:51.502Z,8.1
2023-01-13T06:57:55.974Z,8.1
2023-01-13T06:59:57.788Z,8
2023-01-13T07:04:04.016Z,8.1
2023-01-13T07:06:05.820Z,8
2023-01-13T07:10:12.001Z,8.1
2023-01-13T07:14:15.598Z,8.1
2023-01-13T07:20:23.758Z,8.1
2023-01-13T07:22:28.162Z,8.1
2023-01-13T07:26:31.786Z,8
2023-01-13T07:28:36.290Z,8.1
2023-01-13T07:30:37.943Z,8.2
2023-01-13T07:32:39.647Z,8.2
2023-01-13T07:36:45.730Z,8.1
2023-01-13T07:38:47.560Z,8.1
2023-01-13T07:40:51.872Z,8.2
2023-01-13T07:42:53.607Z,8.2
2023-01-13T07:44:55.318Z,8.1
2023-01-13T07:51:03.341Z,8.1
2023-01-13T07:53:07.824Z,8.2
2023-01-13T07:55:09.651Z,8.1
2023-01-13T07:59:15.934Z,8.2
2023-01-13T08:03:19.551Z,8.1
2023-01-13T08:08:28.839Z,8
2023-01-13T08:10:30.670Z,8.1
2023-01-13T08:12:32.450Z,8.1
2023-01-13T08:21:32.442Z,8.1
2023-01-13T08:25:36.016Z,7.9
2023-01-13T08:33:48.615Z,8.2
2023-01-13T08:35:50.311Z,8.3
2023-01-13T08:37:52.095Z,8.4
2023-01-13T08:39:56.501Z,8.4
2023-01-13T08:41:58.321Z,8.4
2023-01-13T08:44:00.040Z,8.3
2023-01-13T08:46:04.589Z,8.1
2023-01-13T08:48:06.173Z,8.2
2023-01-13T08:50:07.983Z,8.2
2023-01-13T08:55:15.735Z,8.2
2023-01-13T08:57:17.612Z,8.1
2023-01-13T08:59:19.349Z,7.9
2023-01-13T09:01:23.951Z,7.9
2023-01-13T09:05:27.440Z,7.7
2023-01-13T09:07:31.833Z,7.7
2023-01-13T09:11:35.450Z,7.6
2023-01-13T09:13:39.935Z,7.7
2023-01-13T09:15:41.787Z,7.7
2023-01-13T09:17:43.593Z,7.6
2023-01-13T09:21:49.881Z,7.4
2023-01-13T09:23:51.691Z,7.3
2023-01-13T09:25:56.168Z,7.2
2023-01-13T09:27:58.000Z,7.1
2023-01-13T09:29:59.782Z,7.1
2023-01-13T09:36:07.889Z,7.1
2023-01-13T09:38:12.396Z,7.1
2023-01-13T09:40:14.203Z,7
2023-01-13T09:42:15.980Z,7
2023-01-13T09:44:20.454Z,7.1
2023-01-13T09:46:22.324Z,7.1
2023-01-13T09:48:24.066Z,7.1
2023-01-13T09:50:28.536Z,7.1
2023-01-13T09:52:30.362Z,7.2
2023-01-13T09:56:36.646Z,7.3
2023-01-13T10:00:40.217Z,7.3
2023-01-13T10:09:40.169Z,7.3
2023-01-13T10:11:41.932Z,7.4
2023-01-13T10:13:43.738Z,7.3
2023-01-13T10:15:48.295Z,7.3
2023-01-13T10:17:50.062Z,7.2
2023-01-13T10:24:58.310Z,7.3
2023-01-13T10:27:00.147Z,7.3
2023-01-13T10:29:01.900Z,7.4
2023-01-13T10:31:12.406Z,7.5
2023-01-13T10:33:14.107Z,7.5
2023-01-13T10:35:15.895Z,7.5
2023-01-13T10:37:20.366Z,7.4
2023-01-13T10:41:23.937Z,7.2
2023-01-13T10:43:28.313Z,7.2
2023-01-13T10:47:31.962Z,6.9
2023-01-13T10:49:36.531Z,6.8
2023-01-13T10:51:38.218Z,6.7
2023-01-13T10:53:41.709Z,6.7
2023-01-13T11:07:38.290Z,7
2023-01-13T11:09:40.084Z,7.1
2023-01-13T11:44:28.892Z,7.3
2023-01-13T11:46:30.738Z,7.7
2023-01-13T11:48:32.438Z,7.7
2023-01-13T11:50:36.938Z,7.7
2023-01-13T11:54:40.527Z,7.8
2023-01-13T11:56:44.887Z,7.8
2023-01-13T11:58:51.224Z,7.9
2023-01-13T12:00:48.396Z,7.9
2023-01-13T12:07:02.600Z,8
2023-01-13T12:11:08.659Z,8
2023-01-13T12:13:10.348Z,8.2
2023-01-13T12:15:14.768Z,8.3
2023-01-13T12:19:18.404Z,8.4
2023-01-13T12:21:22.906Z,8.4
2023-01-13T12:27:37.117Z,8.4
2023-01-13T12:29:38.868Z,8.5
2023-01-13T12:47:26.004Z,8.5
2023-01-13T12:57:37.210Z,8.8
2023-01-13T12:59:41.610Z,8.8
2023-01-13T13:01:43.445Z,8.9
2023-01-13T13:03:45.021Z,8.9
2023-01-13T13:05:49.451Z,8.9
2023-01-13T13:07:51.184Z,8.9
2023-01-13T13:09:52.890Z,8.9
2023-01-13T13:11:57.259Z,9
2023-01-13T13:13:59.021Z,9
2023-01-13T13:16:00.708Z,9
2023-01-13T13:18:05.108Z,9
2023-01-13T13:22:08.534Z,9.1
2023-01-13T13:37:29.081Z,9.2
2023-01-13T13:42:34.024Z,9.2
2023-01-13T13:44:35.768Z,9.3
2023-01-13T13:58:53.287Z,9.4
2023-01-13T14:07:53.280Z,9.4
2023-01-13T14:09:54.989Z,9.4
2023-01-13T14:11:56.736Z,9.5
2023-01-13T14:14:01.151Z,9.5
2023-01-13T14:18:04.618Z,9.5
2023-01-13T14:20:09.001Z,9.5
2023-01-13T14:24:12.457Z,9.4
2023-01-13T14:42:14.287Z,9.4
2023-01-13T14:53:23.376Z,9.4
2023-01-13T14:55:25.132Z,9.3
2023-01-13T14:57:29.557Z,9.3
2023-01-13T15:01:33.167Z,9.2
2023-01-13T15:03:42.379Z,9.3
2023-01-13T15:05:39.207Z,9.3
2023-01-13T15:07:40.957Z,9.2
2023-01-13T15:11:47.092Z,9.2
2023-01-13T15:13:51.371Z,9.1
2023-01-13T15:15:53.340Z,9.1
2023-01-13T15:19:56.838Z,9.1
2023-01-13T15:22:01.247Z,9
2023-01-13T15:26:04.730Z,9
2023-01-13T15:28:09.112Z,9
2023-01-13T15:30:10.868Z,8.9
2023-01-13T15:32:12.665Z,8.8
2023-01-13T15:34:17.010Z,8.8
2023-01-13T15:36:18.773Z,8.7
2023-01-13T15:38:20.519Z,8.7
2023-01-13T15:40:24.932Z,8.7
2023-01-13T15:42:26.661Z,8.7
2023-01-13T15:44:28.395Z,8.9
2023-01-13T15:46:32.933Z,8.9
2023-01-13T15:48:35.789Z,8.8
2023-01-13T15:50:36.249Z,8.7
2023-01-13T15:52:40.629Z,8.7
2023-01-13T15:54:42.399Z,8.8
2023-01-13T15:56:44.122Z,8.8
2023-01-13T15:58:48.520Z,8.9
2023-01-13T16:00:50.278Z,8.9
2023-01-13T16:02:52.073Z,8.9
2023-01-13T16:04:56.374Z,8.9
2023-01-13T16:08:59.836Z,8.9
2023-01-13T16:22:58.314Z,8.7
2023-01-13T16:25:00.093Z,8.8
2023-01-13T16:27:04.491Z,8.7
2023-01-13T16:31:07.915Z,8.9
2023-01-13T16:33:12.370Z,8.9
2023-01-13T16:35:14.115Z,8.9
2023-01-13T16:37:15.817Z,8.9
2023-01-13T16:39:20.300Z,8.9
2023-01-13T16:41:21.999Z,8.8
2023-01-13T16:43:23.728Z,8.8
2023-01-13T16:45:28.185Z,8.8
2023-01-13T16:47:29.885Z,8.8
2023-01-13T16:49:31.630Z,8.6
2023-01-13T17:01:13.920Z,8.6
2023-01-13T17:03:15.548Z,8.4
2023-01-13T17:05:17.222Z,8.5
2023-01-13T17:07:21.629Z,8.5
2023-01-13T17:11:25.124Z,8.6
2023-01-13T17:17:33.013Z,8.5
2023-01-13T17:23:40.829Z,8.4
2023-01-13T17:28:52.340Z,8.6
2023-01-13T17:30:54.086Z,8.4
2023-01-13T17:32:55.843Z,8.3
2023-01-13T17:40:08.750Z,8
2023-01-13T17:42:10.459Z,7.9
2023-01-13T17:46:16.551Z,7.9
2023-01-13T17:48:18.239Z,7.9
2023-01-13T17:52:24.463Z,7.6
2023-01-13T17:54:26.285Z,7.7
2023-01-13T17:56:30.780Z,7.7
2023-01-13T17:58:32.624Z,7.7
2023-01-13T18:00:34.365Z,7.7
2023-01-13T18:02:38.914Z,7.6
2023-01-13T18:04:40.688Z,7.6
2023-01-13T18:06:42.492Z,7.7
2023-01-13T18:08:46.981Z,7.7
2023-01-13T18:10:48.816Z,7.6
2023-01-13T18:12:50.583Z,7.7
2023-01-13T18:14:55.064Z,7.7
2023-01-13T18:16:56.880Z,7.7
2023-01-13T18:18:58.658Z,7.7
2023-01-13T18:30:15.013Z,7.7
2023-01-13T18:34:18.567Z,7.7
2023-01-13T18:36:23.877Z,7.7
2023-01-13T18:38:25.670Z,7.7
2023-01-13T18:40:27.476Z,7.7
2023-01-13T18:46:35.533Z,7.5
2023-01-13T18:48:40.035Z,7.7
2023-01-13T18:52:43.626Z,7.5
2023-01-13T18:54:48.210Z,7.4
2023-01-13T18:56:49.939Z,7.5
2023-01-13T18:58:51.749Z,7.5
2023-01-13T19:00:56.297Z,7.6
2023-01-13T19:04:59.807Z,7.5
2023-01-13T19:07:04.309Z,7.5
2023-01-13T19:15:13.965Z,7.3
2023-01-13T19:17:15.733Z,7.1
2023-01-13T19:23:23.822Z,7.2
2023-01-13T19:28:30.000Z,7.2
2023-01-13T19:30:31.791Z,7.2
2023-01-13T19:32:33.575Z,7.1
2023-01-13T19:36:39.814Z,7.1
2023-01-13T19:38:41.616Z,7
2023-01-13T19:40:46.066Z,7
2023-01-13T19:42:47.847Z,7.1
2023-01-13T19:46:54.087Z,7
2023-01-13T19:48:55.887Z,7.1
2023-01-13T19:50:57.664Z,7.1
2023-01-13T19:55:03.942Z,7.1
2023-01-13T19:57:05.704Z,7.1
2023-01-13T19:59:10.241Z,7.1
2023-01-13T20:01:12.019Z,7.1
2023-01-13T20:03:13.728Z,7.2
2023-01-13T20:05:18.234Z,7.2
2023-01-13T20:07:19.970Z,7.3
2023-01-13T20:09:21.738Z,7.3
2023-01-13T20:11:26.210Z,7.4
2023-01-13T20:13:27.998Z,7.4
2023-01-13T20:15:29.791Z,7.3
2023-01-13T20:17:34.284Z,7.3
2023-01-13T20:19:36.052Z,7.3
2023-01-13T20:21:37.877Z,7.3
2023-01-13T20:25:44.192Z,7.2
2023-01-13T20:27:45.877Z,7.2
2023-01-13T20:31:52.134Z,7.3
2023-01-13T20:33:53.897Z,7.3
2023-01-13T20:35:58.367Z,7.4
2023-01-13T20:38:00.179Z,7.5
2023-01-13T20:40:02.003Z,7.5
2023-01-13T20:42:06.437Z,7.6
2023-01-13T20:44:08.227Z,7.4
2023-01-13T20:46:10.002Z,7.3
2023-01-13T20:56:24.291Z,7.3
2023-01-13T20:58:26.106Z,7.5
2023-01-13T21:03:38.030Z,7.6
2023-01-13T21:05:41.428Z,7.4
2023-01-13T21:07:43.178Z,7.4
2023-01-13T21:11:49.420Z,7.4
2023-01-13T21:13:51.213Z,7.4
2023-01-13T21:18:59.396Z,7.2
2023-01-13T21:21:01.181Z,7.2
2023-01-13T21:23:02.931Z,7.1
2023-01-13T21:25:07.402Z,7.2
2023-01-13T21:29:10.953Z,7.2
2023-01-13T21:31:15.427Z,7.2
2023-01-13T21:35:18.830Z,7.2
2023-01-13T21:37:23.245Z,7.2
2023-01-13T21:41:26.743Z,7.4
2023-01-13T21:46:30.644Z,7.3
2023-01-13T21:48:32.393Z,7.1
2023-01-13T21:54:40.437Z,7.1
2023-01-13T21:56:42.221Z,7
2023-01-13T22:02:23.205Z,7.2
2023-01-13T22:03:51.583Z,7.2
2023-01-13T22:05:53.328Z,7.3
2023-01-13T22:07:57.791Z,7.2
2023-01-13T22:09:59.584Z,7.3
2023-01-13T22:12:01.352Z,7.3
2023-01-13T22:14:05.800Z,7.2
2023-01-13T22:16:07.619Z,7.2
2023-01-13T22:18:09.366Z,7.2
2023-01-13T22:25:21.673Z,7.4
2023-01-13T22:27:23.343Z,7.5
2023-01-13T22:29:27.780Z,7.4
2023-01-13T22:31:29.498Z,7.4
2023-01-13T22:33:31.211Z,7.4
2023-01-13T22:35:35.688Z,7.6
2023-01-13T22:37:37.471Z,7.4
2023-01-13T22:41:43.682Z,7.4
2023-01-13T22:45:47.331Z,7.5
2023-01-13T22:47:51.708Z,7.5
2023-01-13T22:53:59.956Z,7.7
2023-01-13T22:56:01.538Z,7.6
2023-01-13T22:58:03.291Z,7.7
2023-01-13T23:00:07.830Z,7.7
2023-01-13T23:02:09.476Z,7.7
2023-01-13T23:04:11.307Z,7.5
2023-01-13T23:06:15.720Z,7.5
2023-01-13T23:08:17.487Z,7.5
2023-01-13T23:12:23.766Z,7.7
2023-01-13T23:14:25.518Z,7.5
2023-01-13T23:16:27.374Z,7.4
2023-01-13T23:18:31.786Z,7.5
2023-01-13T23:20:33.605Z,7.5
2023-01-13T23:24:39.843Z,7.4
2023-01-13T23:26:41.627Z,7.3
2023-01-13T23:28:43.427Z,7.2
2023-01-13T23:30:47.987Z,7.3
2023-01-13T23:32:49.692Z,7.4
2023-01-13T23:34:51.472Z,7.4
2023-01-13T23:36:55.929Z,7.4
2023-01-13T23:38:57.718Z,7.3
2023-01-13T23:40:59.545Z,7.3
2023-01-13T23:43:04.058Z,7.4
2023-01-13T23:45:05.813Z,7.3
2023-01-13T23:47:07.584Z,7.3
